sensor_id;sensor_type;location;lat;lon;timestamp;P1;durP1;ratioP1;P2;durP2;ratioP2
27957;SDS011;15295;42.658;23.374;2023-04-10T00:01:48;12.75;;;8.35;;
27957;SDS011;15295;42.658;23.374;2023-04-10T00:04:19;20.13;;;7.95;;
27957;SDS011;15295;42.658;23.374;2023-04-10T00:06:44;11.18;;;7.80;;
27957;SDS011;15295;42.658;23.374;2023-04-10T00:09:10;10.65;;;6.95;;
27957;SDS011;15295;42.658;23.374;2023-04-10T00:11:48;10.93;;;7.63;;
27957;SDS011;15295;42.658;23.374;2023-04-10T00:14:13;10.07;;;7.18;;
27957;SDS011;15295;42.658;23.374;2023-04-10T00:16:40;12.45;;;7.50;;
27957;SDS011;15295;42.658;23.374;2023-04-10T00:19:06;9.75;;;6.55;;
27957;SDS011;15295;42.658;23.374;2023-04-10T00:21:38;10.55;;;6.53;;
27957;SDS011;15295;42.658;23.374;2023-04-10T00:24:03;8.63;;;6.03;;
27957;SDS011;15295;42.658;23.374;2023-04-10T00:26:29;7.60;;;5.47;;
27957;SDS011;15295;42.658;23.374;2023-04-10T00:28:56;7.55;;;5.40;;
27957;SDS011;15295;42.658;23.374;2023-04-10T00:31:25;6.78;;;5.43;;
27957;SDS011;15295;42.658;23.374;2023-04-10T00:33:50;8.52;;;5.50;;
27957;SDS011;15295;42.658;23.374;2023-04-10T00:36:22;7.90;;;4.97;;
27957;SDS011;15295;42.658;23.374;2023-04-10T00:38:48;10.18;;;5.22;;
27957;SDS011;15295;42.658;23.374;2023-04-10T00:41:18;5.63;;;4.53;;
27957;SDS011;15295;42.658;23.374;2023-04-10T00:43:44;6.50;;;4.93;;
27957;SDS011;15295;42.658;23.374;2023-04-10T00:46:12;10.15;;;5.30;;
27957;SDS011;15295;42.658;23.374;2023-04-10T00:48:40;7.35;;;4.57;;
27957;SDS011;15295;42.658;23.374;2023-04-10T00:51:05;8.48;;;5.25;;
27957;SDS011;15295;42.658;23.374;2023-04-10T00:53:32;6.85;;;5.15;;
27957;SDS011;15295;42.658;23.374;2023-04-10T00:55:58;6.88;;;5.25;;
27957;SDS011;15295;42.658;23.374;2023-04-10T00:58:25;7.78;;;4.97;;
27957;SDS011;15295;42.658;23.374;2023-04-10T01:00:51;6.93;;;4.78;;
27957;SDS011;15295;42.658;23.374;2023-04-10T01:03:17;8.20;;;5.50;;
27957;SDS011;15295;42.658;23.374;2023-04-10T01:06:49;9.48;;;6.28;;
27957;SDS011;15295;42.658;23.374;2023-04-10T01:11:38;10.10;;;6.82;;
27957;SDS011;15295;42.658;23.374;2023-04-10T01:17:06;10.85;;;7.40;;
27957;SDS011;15295;42.658;23.374;2023-04-10T01:22:03;10.60;;;7.03;;
27957;SDS011;15295;42.658;23.374;2023-04-10T01:24:49;12.07;;;8.00;;
27957;SDS011;15295;42.658;23.374;2023-04-10T01:30:58;12.52;;;8.10;;
27957;SDS011;15295;42.658;23.374;2023-04-10T01:33:32;10.93;;;7.90;;
27957;SDS011;15295;42.658;23.374;2023-04-10T01:36:26;10.65;;;7.28;;
27957;SDS011;15295;42.658;23.374;2023-04-10T01:39:01;9.75;;;7.45;;
27957;SDS011;15295;42.658;23.374;2023-04-10T01:41:32;9.82;;;7.10;;
27957;SDS011;15295;42.658;23.374;2023-04-10T01:43:59;9.20;;;6.97;;
27957;SDS011;15295;42.658;23.374;2023-04-10T01:46:28;8.50;;;6.38;;
27957;SDS011;15295;42.658;23.374;2023-04-10T01:48:54;9.40;;;6.55;;
27957;SDS011;15295;42.658;23.374;2023-04-10T01:51:22;10.48;;;6.68;;
27957;SDS011;15295;42.658;23.374;2023-04-10T01:53:55;10.85;;;6.80;;
27957;SDS011;15295;42.658;23.374;2023-04-10T01:56:22;9.45;;;6.00;;
27957;SDS011;15295;42.658;23.374;2023-04-10T01:58:47;9.23;;;5.80;;
27957;SDS011;15295;42.658;23.374;2023-04-10T02:01:19;8.48;;;6.07;;
27957;SDS011;15295;42.658;23.374;2023-04-10T02:03:47;7.88;;;5.70;;
27957;SDS011;15295;42.658;23.374;2023-04-10T02:11:55;9.82;;;5.68;;
27957;SDS011;15295;42.658;23.374;2023-04-10T02:14:30;8.15;;;5.93;;
27957;SDS011;15295;42.658;23.374;2023-04-10T02:16:56;7.57;;;6.00;;
27957;SDS011;15295;42.658;23.374;2023-04-10T02:19:30;9.02;;;6.55;;
27957;SDS011;15295;42.658;23.374;2023-04-10T02:21:57;8.50;;;5.97;;
27957;SDS011;15295;42.658;23.374;2023-04-10T02:24:32;8.68;;;6.28;;
27957;SDS011;15295;42.658;23.374;2023-04-10T02:27:06;11.13;;;6.50;;
27957;SDS011;15295;42.658;23.374;2023-04-10T02:29:39;8.65;;;5.95;;
27957;SDS011;15295;42.658;23.374;2023-04-10T02:32:05;8.68;;;6.53;;
27957;SDS011;15295;42.658;23.374;2023-04-10T02:34:30;10.52;;;6.90;;
27957;SDS011;15295;42.658;23.374;2023-04-10T02:37:03;7.20;;;6.00;;
27957;SDS011;15295;42.658;23.374;2023-04-10T02:39:30;12.15;;;6.60;;
27957;SDS011;15295;42.658;23.374;2023-04-10T02:41:55;9.65;;;6.78;;
27957;SDS011;15295;42.658;23.374;2023-04-10T02:44:23;9.63;;;6.55;;
27957;SDS011;15295;42.658;23.374;2023-04-10T02:46:48;9.38;;;7.00;;
27957;SDS011;15295;42.658;23.374;2023-04-10T02:49:14;9.93;;;6.65;;
27957;SDS011;15295;42.658;23.374;2023-04-10T02:57:20;9.95;;;6.38;;
27957;SDS011;15295;42.658;23.374;2023-04-10T02:59:50;11.45;;;6.82;;
27957;SDS011;15295;42.658;23.374;2023-04-10T03:02:16;10.00;;;6.85;;
27957;SDS011;15295;42.658;23.374;2023-04-10T03:04:44;9.25;;;6.75;;
27957;SDS011;15295;42.658;23.374;2023-04-10T03:07:10;11.27;;;7.10;;
27957;SDS011;15295;42.658;23.374;2023-04-10T03:09:36;10.77;;;7.18;;
27957;SDS011;15295;42.658;23.374;2023-04-10T03:12:02;11.25;;;7.88;;
27957;SDS011;15295;42.658;23.374;2023-04-10T03:14:31;9.60;;;7.50;;
27957;SDS011;15295;42.658;23.374;2023-04-10T03:16:57;10.57;;;6.72;;
27957;SDS011;15295;42.658;23.374;2023-04-10T03:19:27;10.75;;;7.38;;
27957;SDS011;15295;42.658;23.374;2023-04-10T03:22:00;11.02;;;7.55;;
27957;SDS011;15295;42.658;23.374;2023-04-10T03:24:32;12.25;;;8.60;;
27957;SDS011;15295;42.658;23.374;2023-04-10T03:26:58;13.23;;;8.45;;
27957;SDS011;15295;42.658;23.374;2023-04-10T03:29:24;12.18;;;7.68;;
27957;SDS011;15295;42.658;23.374;2023-04-10T03:31:50;13.70;;;9.00;;
27957;SDS011;15295;42.658;23.374;2023-04-10T03:34:17;13.18;;;8.50;;
27957;SDS011;15295;42.658;23.374;2023-04-10T03:36:42;11.18;;;8.07;;
27957;SDS011;15295;42.658;23.374;2023-04-10T03:39:07;14.45;;;8.48;;
27957;SDS011;15295;42.658;23.374;2023-04-10T03:41:33;11.75;;;7.90;;
27957;SDS011;15295;42.658;23.374;2023-04-10T03:43:58;13.43;;;7.75;;
27957;SDS011;15295;42.658;23.374;2023-04-10T03:46:31;17.20;;;8.20;;
27957;SDS011;15295;42.658;23.374;2023-04-10T03:49:02;17.00;;;8.07;;
27957;SDS011;15295;42.658;23.374;2023-04-10T03:51:28;14.57;;;8.73;;
27957;SDS011;15295;42.658;23.374;2023-04-10T03:53:53;12.68;;;7.15;;
27957;SDS011;15295;42.658;23.374;2023-04-10T03:56:19;12.60;;;7.28;;
27957;SDS011;15295;42.658;23.374;2023-04-10T03:58:52;12.35;;;7.68;;
27957;SDS011;15295;42.658;23.374;2023-04-10T04:01:19;13.88;;;7.53;;
27957;SDS011;15295;42.658;23.374;2023-04-10T04:03:44;12.52;;;7.93;;
27957;SDS011;15295;42.658;23.374;2023-04-10T04:06:11;12.65;;;8.40;;
27957;SDS011;15295;42.658;23.374;2023-04-10T04:08:36;12.15;;;8.75;;
27957;SDS011;15295;42.658;23.374;2023-04-10T04:11:04;15.55;;;8.80;;
27957;SDS011;15295;42.658;23.374;2023-04-10T04:13:31;18.83;;;9.60;;
27957;SDS011;15295;42.658;23.374;2023-04-10T04:15:58;13.88;;;9.02;;
27957;SDS011;15295;42.658;23.374;2023-04-10T04:18:24;16.63;;;10.02;;
27957;SDS011;15295;42.658;23.374;2023-04-10T04:20:49;19.77;;;9.95;;
27957;SDS011;15295;42.658;23.374;2023-04-10T04:23:15;19.10;;;10.18;;
27957;SDS011;15295;42.658;23.374;2023-04-10T04:25:41;18.38;;;10.75;;
27957;SDS011;15295;42.658;23.374;2023-04-10T04:28:07;17.27;;;9.70;;
27957;SDS011;15295;42.658;23.374;2023-04-10T04:30:36;15.27;;;10.02;;
27957;SDS011;15295;42.658;23.374;2023-04-10T04:33:02;15.55;;;9.65;;
27957;SDS011;15295;42.658;23.374;2023-04-10T04:35:27;17.42;;;9.88;;
27957;SDS011;15295;42.658;23.374;2023-04-10T04:37:53;20.02;;;11.07;;
27957;SDS011;15295;42.658;23.374;2023-04-10T04:40:18;17.25;;;10.50;;
27957;SDS011;15295;42.658;23.374;2023-04-10T04:42:44;19.88;;;11.88;;
27957;SDS011;15295;42.658;23.374;2023-04-10T04:45:19;30.65;;;12.18;;
27957;SDS011;15295;42.658;23.374;2023-04-10T04:47:45;23.17;;;12.15;;
27957;SDS011;15295;42.658;23.374;2023-04-10T04:50:13;17.88;;;10.85;;
27957;SDS011;15295;42.658;23.374;2023-04-10T04:52:39;17.98;;;10.70;;
27957;SDS011;15295;42.658;23.374;2023-04-10T04:55:04;20.98;;;11.02;;
27957;SDS011;15295;42.658;23.374;2023-04-10T04:57:30;16.98;;;11.57;;
27957;SDS011;15295;42.658;23.374;2023-04-10T04:59:56;23.00;;;11.85;;
27957;SDS011;15295;42.658;23.374;2023-04-10T05:02:21;19.15;;;11.75;;
27957;SDS011;15295;42.658;23.374;2023-04-10T05:04:47;22.02;;;11.65;;
27957;SDS011;15295;42.658;23.374;2023-04-10T05:07:14;25.80;;;14.45;;
27957;SDS011;15295;42.658;23.374;2023-04-10T05:09:40;26.27;;;13.00;;
27957;SDS011;15295;42.658;23.374;2023-04-10T05:12:06;20.05;;;11.40;;
27957;SDS011;15295;42.658;23.374;2023-04-10T05:14:32;20.52;;;10.63;;
27957;SDS011;15295;42.658;23.374;2023-04-10T05:16:57;18.05;;;11.18;;
27957;SDS011;15295;42.658;23.374;2023-04-10T05:19:22;19.20;;;11.27;;
27957;SDS011;15295;42.658;23.374;2023-04-10T05:21:48;21.92;;;12.23;;
27957;SDS011;15295;42.658;23.374;2023-04-10T05:24:13;27.20;;;14.07;;
27957;SDS011;15295;42.658;23.374;2023-04-10T05:26:39;24.58;;;12.30;;
27957;SDS011;15295;42.658;23.374;2023-04-10T05:29:06;28.13;;;11.95;;
27957;SDS011;15295;42.658;23.374;2023-04-10T05:31:32;18.60;;;10.57;;
27957;SDS011;15295;42.658;23.374;2023-04-10T05:33:57;16.27;;;9.88;;
27957;SDS011;15295;42.658;23.374;2023-04-10T05:36:23;17.02;;;10.43;;
27957;SDS011;15295;42.658;23.374;2023-04-10T05:38:48;23.83;;;11.77;;
27957;SDS011;15295;42.658;23.374;2023-04-10T05:41:13;25.63;;;13.13;;
27957;SDS011;15295;42.658;23.374;2023-04-10T05:43:40;17.23;;;10.77;;
27957;SDS011;15295;42.658;23.374;2023-04-10T05:46:08;19.08;;;10.55;;
27957;SDS011;15295;42.658;23.374;2023-04-10T05:48:35;19.15;;;10.98;;
27957;SDS011;15295;42.658;23.374;2023-04-10T05:51:01;19.77;;;10.35;;
27957;SDS011;15295;42.658;23.374;2023-04-10T05:53:27;15.95;;;10.13;;
27957;SDS011;15295;42.658;23.374;2023-04-10T05:55:55;16.20;;;10.82;;
27957;SDS011;15295;42.658;23.374;2023-04-10T05:58:23;18.00;;;10.90;;
27957;SDS011;15295;42.658;23.374;2023-04-10T06:00:49;16.98;;;10.98;;
27957;SDS011;15295;42.658;23.374;2023-04-10T06:03:15;15.35;;;10.02;;
27957;SDS011;15295;42.658;23.374;2023-04-10T06:05:41;20.35;;;11.05;;
27957;SDS011;15295;42.658;23.374;2023-04-10T06:08:06;19.05;;;11.23;;
27957;SDS011;15295;42.658;23.374;2023-04-10T06:10:31;14.68;;;10.55;;
27957;SDS011;15295;42.658;23.374;2023-04-10T06:12:58;20.25;;;12.18;;
27957;SDS011;15295;42.658;23.374;2023-04-10T06:15:24;21.25;;;11.55;;
27957;SDS011;15295;42.658;23.374;2023-04-10T06:17:50;19.33;;;11.95;;
27957;SDS011;15295;42.658;23.374;2023-04-10T06:20:15;17.35;;;12.13;;
27957;SDS011;15295;42.658;23.374;2023-04-10T06:22:41;21.42;;;11.80;;
27957;SDS011;15295;42.658;23.374;2023-04-10T06:25:06;20.33;;;11.68;;
27957;SDS011;15295;42.658;23.374;2023-04-10T06:27:33;19.52;;;11.98;;
27957;SDS011;15295;42.658;23.374;2023-04-10T06:30:00;19.83;;;13.20;;
27957;SDS011;15295;42.658;23.374;2023-04-10T06:32:27;24.10;;;14.57;;
27957;SDS011;15295;42.658;23.374;2023-04-10T06:34:52;26.92;;;13.65;;
27957;SDS011;15295;42.658;23.374;2023-04-10T06:37:18;18.02;;;12.10;;
27957;SDS011;15295;42.658;23.374;2023-04-10T06:39:43;19.30;;;12.57;;
27957;SDS011;15295;42.658;23.374;2023-04-10T06:42:09;18.13;;;12.38;;
27957;SDS011;15295;42.658;23.374;2023-04-10T06:44:35;18.58;;;11.70;;
27957;SDS011;15295;42.658;23.374;2023-04-10T06:49:33;21.65;;;14.32;;
27957;SDS011;15295;42.658;23.374;2023-04-10T06:52:01;26.92;;;14.68;;
27957;SDS011;15295;42.658;23.374;2023-04-10T06:54:27;20.70;;;13.07;;
27957;SDS011;15295;42.658;23.374;2023-04-10T06:59:22;19.40;;;12.25;;
27957;SDS011;15295;42.658;23.374;2023-04-10T07:01:48;22.48;;;13.65;;
27957;SDS011;15295;42.658;23.374;2023-04-10T07:04:13;24.25;;;14.73;;
27957;SDS011;15295;42.658;23.374;2023-04-10T07:06:38;20.48;;;13.75;;
27957;SDS011;15295;42.658;23.374;2023-04-10T07:09:04;20.65;;;13.77;;
27957;SDS011;15295;42.658;23.374;2023-04-10T07:11:29;18.05;;;12.02;;
27957;SDS011;15295;42.658;23.374;2023-04-10T07:13:55;22.42;;;14.02;;
27957;SDS011;15295;42.658;23.374;2023-04-10T07:16:22;22.80;;;14.80;;
27957;SDS011;15295;42.658;23.374;2023-04-10T07:18:51;19.63;;;13.10;;
27957;SDS011;15295;42.658;23.374;2023-04-10T07:26:26;21.98;;;13.48;;
27957;SDS011;15295;42.658;23.374;2023-04-10T07:29:26;26.98;;;16.60;;
27957;SDS011;15295;42.658;23.374;2023-04-10T07:34:39;29.65;;;16.77;;
27957;SDS011;15295;42.658;23.374;2023-04-10T07:43:03;23.60;;;14.23;;
27957;SDS011;15295;42.658;23.374;2023-04-10T07:45:30;24.63;;;14.77;;
27957;SDS011;15295;42.658;23.374;2023-04-10T07:48:03;23.10;;;14.32;;
27957;SDS011;15295;42.658;23.374;2023-04-10T07:50:37;26.23;;;17.55;;
27957;SDS011;15295;42.658;23.374;2023-04-10T07:53:03;25.15;;;15.10;;
27957;SDS011;15295;42.658;23.374;2023-04-10T07:55:37;23.63;;;14.40;;
27957;SDS011;15295;42.658;23.374;2023-04-10T07:58:17;22.00;;;13.93;;
27957;SDS011;15295;42.658;23.374;2023-04-10T08:00:57;25.27;;;15.00;;
27957;SDS011;15295;42.658;23.374;2023-04-10T08:03:23;22.98;;;14.57;;
27957;SDS011;15295;42.658;23.374;2023-04-10T08:05:48;23.58;;;14.75;;
27957;SDS011;15295;42.658;23.374;2023-04-10T08:08:16;21.70;;;13.48;;
27957;SDS011;15295;42.658;23.374;2023-04-10T08:10:50;20.35;;;14.32;;
27957;SDS011;15295;42.658;23.374;2023-04-10T08:13:17;22.77;;;15.63;;
27957;SDS011;15295;42.658;23.374;2023-04-10T08:15:47;23.20;;;14.00;;
27957;SDS011;15295;42.658;23.374;2023-04-10T08:41:20;24.42;;;14.57;;
27957;SDS011;15295;42.658;23.374;2023-04-10T08:44:05;23.85;;;14.57;;
27957;SDS011;15295;42.658;23.374;2023-04-10T08:46:44;26.70;;;15.35;;
27957;SDS011;15295;42.658;23.374;2023-04-10T08:53:18;24.55;;;14.30;;
27957;SDS011;15295;42.658;23.374;2023-04-10T08:56:26;25.25;;;15.52;;
27957;SDS011;15295;42.658;23.374;2023-04-10T08:58:58;21.75;;;13.85;;
27957;SDS011;15295;42.658;23.374;2023-04-10T09:01:27;20.27;;;13.20;;
27957;SDS011;15295;42.658;23.374;2023-04-10T09:04:00;18.70;;;12.88;;
27957;SDS011;15295;42.658;23.374;2023-04-10T09:06:29;20.50;;;13.60;;
27957;SDS011;15295;42.658;23.374;2023-04-10T09:08:57;20.63;;;12.77;;
27957;SDS011;15295;42.658;23.374;2023-04-10T09:11:35;16.98;;;12.45;;
27957;SDS011;15295;42.658;23.374;2023-04-10T09:14:23;18.15;;;12.10;;
27957;SDS011;15295;42.658;23.374;2023-04-10T09:16:50;17.73;;;12.35;;
27957;SDS011;15295;42.658;23.374;2023-04-10T09:19:28;19.42;;;12.68;;
27957;SDS011;15295;42.658;23.374;2023-04-10T09:22:01;20.45;;;13.88;;
27957;SDS011;15295;42.658;23.374;2023-04-10T09:24:38;19.10;;;12.10;;
27957;SDS011;15295;42.658;23.374;2023-04-10T09:27:05;18.55;;;12.77;;
27957;SDS011;15295;42.658;23.374;2023-04-10T09:55:04;18.55;;;12.40;;
27957;SDS011;15295;42.658;23.374;2023-04-10T10:45:53;16.83;;;10.97;;
27957;SDS011;15295;42.658;23.374;2023-04-10T10:48:30;18.00;;;11.98;;
27957;SDS011;15295;42.658;23.374;2023-04-10T10:54:31;15.45;;;10.98;;
27957;SDS011;15295;42.658;23.374;2023-04-10T10:59:55;16.80;;;10.75;;
27957;SDS011;15295;42.658;23.374;2023-04-10T11:55:06;12.80;;;8.75;;
27957;SDS011;15295;42.658;23.374;2023-04-10T11:57:33;14.27;;;9.45;;
27957;SDS011;15295;42.658;23.374;2023-04-10T12:00:01;10.15;;;8.48;;
27957;SDS011;15295;42.658;23.374;2023-04-10T12:02:51;11.77;;;8.38;;
27957;SDS011;15295;42.658;23.374;2023-04-10T12:05:43;12.88;;;9.15;;
27957;SDS011;15295;42.658;23.374;2023-04-10T12:08:19;12.00;;;9.23;;
27957;SDS011;15295;42.658;23.374;2023-04-10T12:33:05;14.60;;;10.55;;
27957;SDS011;15295;42.658;23.374;2023-04-10T12:35:54;15.57;;;11.30;;
27957;SDS011;15295;42.658;23.374;2023-04-10T12:41:10;17.30;;;12.35;;
27957;SDS011;15295;42.658;23.374;2023-04-10T12:43:52;10.88;;;7.20;;
27957;SDS011;15295;42.658;23.374;2023-04-10T12:46:30;9.18;;;6.75;;
27957;SDS011;15295;42.658;23.374;2023-04-10T12:49:07;8.90;;;6.32;;
27957;SDS011;15295;42.658;23.374;2023-04-10T12:52:20;8.15;;;6.43;;
27957;SDS011;15295;42.658;23.374;2023-04-10T12:54:47;11.95;;;7.75;;
27957;SDS011;15295;42.658;23.374;2023-04-10T13:03:28;11.65;;;8.95;;
27957;SDS011;15295;42.658;23.374;2023-04-10T13:06:57;13.02;;;9.60;;
27957;SDS011;15295;42.658;23.374;2023-04-10T13:14:58;16.35;;;11.38;;
27957;SDS011;15295;42.658;23.374;2023-04-10T13:17:25;14.43;;;9.60;;
27957;SDS011;15295;42.658;23.374;2023-04-10T14:31:41;9.95;;;6.32;;
27957;SDS011;15295;42.658;23.374;2023-04-10T15:28:35;18.17;;;11.60;;
27957;SDS011;15295;42.658;23.374;2023-04-10T15:36:15;18.20;;;12.88;;
27957;SDS011;15295;42.658;23.374;2023-04-10T15:41:26;18.95;;;13.48;;
27957;SDS011;15295;42.658;23.374;2023-04-10T15:43:56;19.70;;;13.55;;
27957;SDS011;15295;42.658;23.374;2023-04-10T15:46:21;20.33;;;12.25;;
27957;SDS011;15295;42.658;23.374;2023-04-10T15:48:50;25.48;;;16.35;;
27957;SDS011;15295;42.658;23.374;2023-04-10T15:51:20;21.23;;;13.55;;
27957;SDS011;15295;42.658;23.374;2023-04-10T15:53:52;17.40;;;12.15;;
27957;SDS011;15295;42.658;23.374;2023-04-10T15:56:31;20.40;;;12.05;;
27957;SDS011;15295;42.658;23.374;2023-04-10T15:59:00;18.85;;;12.73;;
27957;SDS011;15295;42.658;23.374;2023-04-10T16:01:29;23.58;;;14.95;;
27957;SDS011;15295;42.658;23.374;2023-04-10T16:04:13;20.35;;;13.98;;
27957;SDS011;15295;42.658;23.374;2023-04-10T16:06:40;18.33;;;13.00;;
27957;SDS011;15295;42.658;23.374;2023-04-10T16:09:11;20.73;;;13.48;;
27957;SDS011;15295;42.658;23.374;2023-04-10T16:11:38;14.40;;;11.50;;
27957;SDS011;15295;42.658;23.374;2023-04-10T16:16:36;18.25;;;13.15;;
27957;SDS011;15295;42.658;23.374;2023-04-10T16:19:02;18.33;;;13.88;;
27957;SDS011;15295;42.658;23.374;2023-04-10T16:21:36;18.08;;;12.45;;
27957;SDS011;15295;42.658;23.374;2023-04-10T16:24:01;17.88;;;12.70;;
27957;SDS011;15295;42.658;23.374;2023-04-10T16:26:26;17.58;;;12.57;;
27957;SDS011;15295;42.658;23.374;2023-04-10T16:28:52;16.77;;;12.60;;
27957;SDS011;15295;42.658;23.374;2023-04-10T16:31:17;12.15;;;8.38;;
27957;SDS011;15295;42.658;23.374;2023-04-10T16:33:44;12.60;;;7.78;;
27957;SDS011;15295;42.658;23.374;2023-04-10T16:36:09;10.35;;;6.47;;
27957;SDS011;15295;42.658;23.374;2023-04-10T16:38:35;8.90;;;6.38;;
27957;SDS011;15295;42.658;23.374;2023-04-10T16:41:04;9.82;;;5.65;;
27957;SDS011;15295;42.658;23.374;2023-04-10T16:43:29;7.55;;;5.63;;
27957;SDS011;15295;42.658;23.374;2023-04-10T16:45:55;9.02;;;5.32;;
27957;SDS011;15295;42.658;23.374;2023-04-10T16:48:22;9.68;;;7.00;;
27957;SDS011;15295;42.658;23.374;2023-04-10T16:50:47;12.07;;;6.22;;
27957;SDS011;15295;42.658;23.374;2023-04-10T16:53:12;10.45;;;6.32;;
27957;SDS011;15295;42.658;23.374;2023-04-10T16:55:38;9.63;;;6.55;;
27957;SDS011;15295;42.658;23.374;2023-04-10T16:58:03;10.80;;;7.50;;
27957;SDS011;15295;42.658;23.374;2023-04-10T17:00:28;13.18;;;7.82;;
27957;SDS011;15295;42.658;23.374;2023-04-10T17:02:54;13.35;;;8.13;;
27957;SDS011;15295;42.658;23.374;2023-04-10T17:05:19;13.52;;;8.27;;
27957;SDS011;15295;42.658;23.374;2023-04-10T17:07:45;15.23;;;8.95;;
27957;SDS011;15295;42.658;23.374;2023-04-10T17:10:10;14.43;;;8.30;;
27957;SDS011;15295;42.658;23.374;2023-04-10T17:12:35;17.20;;;9.57;;
27957;SDS011;15295;42.658;23.374;2023-04-10T17:15:02;15.68;;;9.10;;
27957;SDS011;15295;42.658;23.374;2023-04-10T17:17:28;15.10;;;9.15;;
27957;SDS011;15295;42.658;23.374;2023-04-10T17:19:53;12.30;;;8.50;;
27957;SDS011;15295;42.658;23.374;2023-04-10T17:22:19;10.93;;;8.38;;
27957;SDS011;15295;42.658;23.374;2023-04-10T17:24:47;12.93;;;8.30;;
27957;SDS011;15295;42.658;23.374;2023-04-10T17:27:12;12.98;;;7.78;;
27957;SDS011;15295;42.658;23.374;2023-04-10T17:29:38;16.60;;;11.00;;
27957;SDS011;15295;42.658;23.374;2023-04-10T17:32:04;15.27;;;9.90;;
27957;SDS011;15295;42.658;23.374;2023-04-10T17:34:30;18.90;;;9.75;;
27957;SDS011;15295;42.658;23.374;2023-04-10T17:36:55;11.93;;;8.50;;
27957;SDS011;15295;42.658;23.374;2023-04-10T17:39:21;11.73;;;7.70;;
27957;SDS011;15295;42.658;23.374;2023-04-10T17:41:47;11.48;;;7.82;;
27957;SDS011;15295;42.658;23.374;2023-04-10T17:44:12;12.77;;;8.13;;
27957;SDS011;15295;42.658;23.374;2023-04-10T17:46:38;15.18;;;8.70;;
27957;SDS011;15295;42.658;23.374;2023-04-10T17:49:03;13.52;;;8.75;;
27957;SDS011;15295;42.658;23.374;2023-04-10T17:51:29;13.85;;;9.13;;
27957;SDS011;15295;42.658;23.374;2023-04-10T17:53:55;15.15;;;10.00;;
27957;SDS011;15295;42.658;23.374;2023-04-10T17:56:21;15.13;;;9.90;;
27957;SDS011;15295;42.658;23.374;2023-04-10T17:58:46;17.63;;;11.38;;
27957;SDS011;15295;42.658;23.374;2023-04-10T18:01:19;22.20;;;13.18;;
27957;SDS011;15295;42.658;23.374;2023-04-10T18:03:45;19.08;;;11.13;;
27957;SDS011;15295;42.658;23.374;2023-04-10T18:06:11;18.80;;;11.05;;
27957;SDS011;15295;42.658;23.374;2023-04-10T18:08:36;18.75;;;12.63;;
27957;SDS011;15295;42.658;23.374;2023-04-10T18:11:02;21.38;;;14.18;;
27957;SDS011;15295;42.658;23.374;2023-04-10T18:13:27;23.20;;;15.90;;
27957;SDS011;15295;42.658;23.374;2023-04-10T18:15:53;20.13;;;13.63;;
27957;SDS011;15295;42.658;23.374;2023-04-10T18:18:18;19.38;;;12.63;;
27957;SDS011;15295;42.658;23.374;2023-04-10T18:20:44;21.85;;;15.05;;
27957;SDS011;15295;42.658;23.374;2023-04-10T18:23:09;21.70;;;14.90;;
27957;SDS011;15295;42.658;23.374;2023-04-10T18:25:35;22.73;;;14.45;;
27957;SDS011;15295;42.658;23.374;2023-04-10T18:28:00;20.33;;;15.07;;
27957;SDS011;15295;42.658;23.374;2023-04-10T18:30:25;23.80;;;15.93;;
27957;SDS011;15295;42.658;23.374;2023-04-10T18:32:51;23.65;;;16.00;;
27957;SDS011;15295;42.658;23.374;2023-04-10T18:35:16;22.42;;;15.73;;
27957;SDS011;15295;42.658;23.374;2023-04-10T18:37:42;23.80;;;14.43;;
27957;SDS011;15295;42.658;23.374;2023-04-10T18:40:08;20.85;;;13.10;;
27957;SDS011;15295;42.658;23.374;2023-04-10T18:42:34;23.55;;;12.98;;
27957;SDS011;15295;42.658;23.374;2023-04-10T18:44:59;20.10;;;13.40;;
27957;SDS011;15295;42.658;23.374;2023-04-10T18:47:26;23.33;;;14.05;;
27957;SDS011;15295;42.658;23.374;2023-04-10T18:49:51;23.08;;;15.40;;
27957;SDS011;15295;42.658;23.374;2023-04-10T18:52:16;25.90;;;15.65;;
27957;SDS011;15295;42.658;23.374;2023-04-10T18:54:43;22.60;;;14.55;;
27957;SDS011;15295;42.658;23.374;2023-04-10T18:57:09;23.98;;;14.27;;
27957;SDS011;15295;42.658;23.374;2023-04-10T18:59:35;27.70;;;15.45;;
27957;SDS011;15295;42.658;23.374;2023-04-10T19:02:01;29.08;;;18.73;;
27957;SDS011;15295;42.658;23.374;2023-04-10T19:04:27;32.90;;;22.00;;
27957;SDS011;15295;42.658;23.374;2023-04-10T19:06:52;32.83;;;22.90;;
27957;SDS011;15295;42.658;23.374;2023-04-10T19:09:18;30.95;;;20.58;;
27957;SDS011;15295;42.658;23.374;2023-04-10T19:11:43;29.02;;;17.52;;
27957;SDS011;15295;42.658;23.374;2023-04-10T19:14:10;27.63;;;17.23;;
27957;SDS011;15295;42.658;23.374;2023-04-10T19:16:35;31.27;;;20.50;;
27957;SDS011;15295;42.658;23.374;2023-04-10T19:19:00;28.33;;;19.23;;
27957;SDS011;15295;42.658;23.374;2023-04-10T19:21:26;30.73;;;18.92;;
27957;SDS011;15295;42.658;23.374;2023-04-10T19:23:52;25.35;;;16.98;;
27957;SDS011;15295;42.658;23.374;2023-04-10T19:26:17;28.15;;;17.45;;
27957;SDS011;15295;42.658;23.374;2023-04-10T19:28:44;26.45;;;17.52;;
27957;SDS011;15295;42.658;23.374;2023-04-10T19:31:10;29.98;;;19.10;;
27957;SDS011;15295;42.658;23.374;2023-04-10T19:33:35;26.67;;;17.80;;
27957;SDS011;15295;42.658;23.374;2023-04-10T19:36:00;24.88;;;16.58;;
27957;SDS011;15295;42.658;23.374;2023-04-10T19:38:26;27.73;;;17.70;;
27957;SDS011;15295;42.658;23.374;2023-04-10T19:40:53;25.67;;;16.50;;
27957;SDS011;15295;42.658;23.374;2023-04-10T19:43:19;26.80;;;17.45;;
27957;SDS011;15295;42.658;23.374;2023-04-10T19:45:44;27.90;;;17.42;;
27957;SDS011;15295;42.658;23.374;2023-04-10T19:48:11;27.38;;;18.02;;
27957;SDS011;15295;42.658;23.374;2023-04-10T19:50:40;26.60;;;17.95;;
27957;SDS011;15295;42.658;23.374;2023-04-10T19:53:06;28.30;;;17.90;;
27957;SDS011;15295;42.658;23.374;2023-04-10T19:55:31;29.20;;;17.70;;
27957;SDS011;15295;42.658;23.374;2023-04-10T19:57:57;22.33;;;14.77;;
27957;SDS011;15295;42.658;23.374;2023-04-10T20:00:22;26.33;;;16.02;;
27957;SDS011;15295;42.658;23.374;2023-04-10T20:02:48;26.75;;;16.77;;
27957;SDS011;15295;42.658;23.374;2023-04-10T20:05:13;25.40;;;16.60;;
27957;SDS011;15295;42.658;23.374;2023-04-10T20:07:40;23.63;;;15.90;;
27957;SDS011;15295;42.658;23.374;2023-04-10T20:10:05;22.27;;;16.00;;
27957;SDS011;15295;42.658;23.374;2023-04-10T20:12:31;24.65;;;15.77;;
27957;SDS011;15295;42.658;23.374;2023-04-10T20:14:57;23.42;;;15.60;;
27957;SDS011;15295;42.658;23.374;2023-04-10T20:17:23;27.85;;;17.58;;
27957;SDS011;15295;42.658;23.374;2023-04-10T20:19:49;23.60;;;16.80;;
27957;SDS011;15295;42.658;23.374;2023-04-10T20:22:14;25.10;;;17.08;;
27957;SDS011;15295;42.658;23.374;2023-04-10T20:24:40;24.63;;;16.63;;
27957;SDS011;15295;42.658;23.374;2023-04-10T20:27:05;26.02;;;16.83;;
27957;SDS011;15295;42.658;23.374;2023-04-10T20:29:30;26.85;;;17.77;;
27957;SDS011;15295;42.658;23.374;2023-04-10T20:31:56;25.67;;;16.88;;
27957;SDS011;15295;42.658;23.374;2023-04-10T20:34:21;24.88;;;17.50;;
27957;SDS011;15295;42.658;23.374;2023-04-10T20:36:46;30.00;;;21.38;;
27957;SDS011;15295;42.658;23.374;2023-04-10T20:39:12;28.90;;;19.27;;